Time;durP1;ratioP1;P1;durP2;ratioP2;P2;SDS_P1;SDS_P2;PMS_P1;PMS_P2;Temp;Humidity;BMP_temperature;BMP_pressure;BME280_temperature;BME280_humidity;BME280_pressure;Samples;Min_cycle;Max_cycle;Signal;HPM_P1;HPM_P2
2023/12/17 00:01:44;;;;;;;3.47;2.70;;;16.60;65.80;17.60;103015.00;;;;5070287;28;20655;-45
2023/12/17 00:04:10;;;;;;;4.10;3.00;;;16.60;65.80;17.60;103015.00;;;;5065714;28;20188;-45
2023/12/17 00:06:37;;;;;;;3.60;3.03;;;16.60;65.80;17.60;103020.00;;;;5070338;28;20721;-45
2023/12/17 00:09:03;;;;;;;3.93;2.70;;;16.60;65.80;17.60;103023.00;;;;5070476;28;20192;-49
2023/12/17 00:11:29;;;;;;;3.50;2.57;;;16.60;65.80;17.60;103026.00;;;;5069111;28;20183;-45
2023/12/17 00:13:55;;;;;;;4.47;3.10;;;16.60;65.80;17.60;103031.00;;;;5070224;28;20255;-45
2023/12/17 00:16:21;;;;;;;4.00;2.83;;;16.60;65.80;17.60;103026.00;;;;5070215;28;20750;-45
2023/12/17 00:18:47;;;;;;;3.60;2.80;;;16.60;65.80;17.60;103035.00;;;;5070282;28;20566;-45
2023/12/17 00:21:12;;;;;;;4.90;3.10;;;16.60;65.80;17.60;103029.00;;;;5070474;28;20173;-46
2023/12/17 00:23:38;;;;;;;4.10;2.80;;;16.60;65.80;17.60;103047.00;;;;5066384;28;20179;-45
2023/12/17 00:26:04;;;;;;;3.10;2.70;;;16.60;65.80;17.60;103031.00;;;;5070222;28;20182;-44
2023/12/17 00:28:30;;;;;;;3.30;2.93;;;16.60;65.80;17.60;103026.00;;;;5062356;28;20242;-44
2023/12/17 00:30:55;;;;;;;5.03;3.03;;;16.60;65.80;17.60;103018.00;;;;5070092;28;20832;-45
2023/12/17 00:33:21;;;;;;;4.57;2.87;;;16.60;65.80;17.60;103034.00;;;;5061591;28;20182;-44
2023/12/17 00:35:47;;;;;;;3.20;2.70;;;16.60;65.80;17.50;103024.00;;;;5070059;28;20185;-44
2023/12/17 00:38:13;;;;;;;4.10;3.00;;;16.60;65.80;17.60;103036.00;;;;5069492;28;20227;-44
2023/12/17 00:40:39;;;;;;;2.93;2.63;;;16.50;65.80;17.50;103031.00;;;;5070035;28;20206;-43
2023/12/17 00:43:04;;;;;;;3.00;2.60;;;16.50;65.80;17.60;103040.00;;;;5069563;28;20669;-44
2023/12/17 00:45:30;;;;;;;4.47;3.07;;;16.50;65.80;17.60;103033.00;;;;5069554;28;20184;-44
2023/12/17 00:47:56;;;;;;;3.33;2.70;;;16.60;66.00;17.50;103033.00;;;;5069605;28;20228;-45
2023/12/17 00:50:22;;;;;;;3.33;3.00;;;16.50;65.90;17.50;103040.00;;;;5069804;28;20603;-44
2023/12/17 00:52:47;;;;;;;3.70;2.90;;;16.50;65.90;17.50;103031.00;;;;5069701;28;20559;-44
2023/12/17 00:55:13;;;;;;;3.27;2.80;;;16.50;65.90;17.50;103027.00;;;;5068280;28;20196;-44
2023/12/17 00:57:39;;;;;;;3.17;2.70;;;16.50;65.90;17.50;103020.00;;;;5064012;28;20720;-44
2023/12/17 01:00:05;;;;;;;2.90;2.60;;;16.50;66.00;17.50;103022.00;;;;5069446;28;20175;-45
2023/12/17 01:02:31;;;;;;;4.13;3.00;;;16.50;66.00;17.50;103020.00;;;;5067323;28;20191;-44
2023/12/17 01:04:57;;;;;;;3.20;2.90;;;16.50;66.00;17.50;103018.00;;;;5064985;28;20181;-45
2023/12/17 01:07:23;;;;;;;3.10;2.80;;;16.50;66.10;17.50;103024.00;;;;5067782;28;20304;-45
2023/12/17 01:09:49;;;;;;;2.90;2.70;;;16.50;66.10;17.50;103030.00;;;;5068303;28;20717;-45
2023/12/17 01:12:14;;;;;;;3.23;2.93;;;16.50;66.00;17.50;103023.00;;;;5067767;28;20184;-44
2023/12/17 01:14:40;;;;;;;3.07;2.77;;;16.50;66.00;17.50;103026.00;;;;5065996;28;20186;-44
2023/12/17 01:17:07;;;;;;;3.43;2.90;;;16.40;65.90;17.40;103035.00;;;;5068126;28;20260;-44
2023/12/17 01:19:34;;;;;;;3.07;2.77;;;16.40;66.00;17.40;102964.00;;;;5067819;28;20182;-44
2023/12/17 01:22:00;;;;;;;3.30;2.70;;;16.50;66.10;17.40;103038.00;;;;5068308;28;20543;-45
2023/12/17 01:24:26;;;;;;;2.70;2.50;;;16.50;66.00;17.40;103037.00;;;;5067663;28;20183;-44
2023/12/17 01:26:52;;;;;;;2.60;2.40;;;16.40;66.00;17.40;103032.00;;;;5068173;28;20214;-44
2023/12/17 01:29:17;;;;;;;3.57;2.80;;;16.40;66.00;17.40;103036.00;;;;5067359;28;20688;-44
2023/12/17 01:31:43;;;;;;;2.80;2.47;;;16.40;66.00;17.40;103035.00;;;;5067762;28;20193;-43
2023/12/17 01:34:09;;;;;;;4.00;3.00;;;16.40;66.10;17.40;103028.00;;;;5061345;28;20189;-45
2023/12/17 01:36:34;;;;;;;4.43;2.90;;;16.40;66.10;17.40;103030.00;;;;5070217;28;21496;-45
2023/12/17 01:39:00;;;;;;;3.03;2.73;;;16.40;66.20;17.40;103026.00;;;;5068318;28;20221;-45
2023/12/17 01:41:26;;;;;;;2.63;2.43;;;16.30;66.00;17.40;103023.00;;;;5067909;28;20215;-44
2023/12/17 01:43:51;;;;;;;3.20;2.80;;;16.40;66.20;17.30;103020.00;;;;5061488;28;20270;-44
2023/12/17 01:46:18;;;;;;;2.80;2.50;;;16.40;66.10;17.30;103025.00;;;;5067429;28;20203;-44
2023/12/17 01:48:43;;;;;;;3.40;2.73;;;16.30;66.00;17.30;103029.00;;;;5067142;28;20223;-44
2023/12/17 01:51:09;;;;;;;2.90;2.57;;;16.40;66.20;17.30;103029.00;;;;5066572;28;20550;-44
2023/12/17 01:53:35;;;;;;;2.80;2.60;;;16.40;66.20;17.30;103020.00;;;;5065773;28;20299;-44
2023/12/17 01:56:00;;;;;;;3.23;2.73;;;16.30;66.10;17.30;103022.00;;;;5048291;28;20649;-44
2023/12/17 01:58:26;;;;;;;3.33;2.63;;;16.30;66.20;17.30;103021.00;;;;5067598;28;20217;-44
2023/12/17 02:00:52;;;;;;;4.07;2.80;;;16.30;66.20;17.30;103009.00;;;;5068137;28;20184;-45
2023/12/17 02:03:18;;;;;;;2.97;2.60;;;16.30;66.20;17.30;103017.00;;;;5045671;28;20238;-45
2023/12/17 02:05:45;;;;;;;2.80;2.50;;;16.30;66.20;17.30;103031.00;;;;5067821;28;20832;-45
2023/12/17 02:08:11;;;;;;;4.67;3.00;;;16.30;66.30;17.30;103022.00;;;;5066073;28;20202;-45
2023/12/17 02:10:37;;;;;;;2.83;2.60;;;16.30;66.30;17.30;103027.00;;;;5067670;28;20691;-45
2023/12/17 02:13:03;;;;;;;3.23;2.70;;;16.30;66.40;17.30;103023.00;;;;5067149;28;20203;-45
2023/12/17 02:15:28;;;;;;;2.93;2.60;;;16.30;66.40;17.30;103014.00;;;;5067362;28;20182;-45
2023/12/17 02:17:54;;;;;;;3.40;2.70;;;16.30;66.40;17.20;103009.00;;;;5067229;28;20294;-45
2023/12/17 02:20:20;;;;;;;3.20;2.80;;;16.30;66.40;17.20;103022.00;;;;5067443;28;20181;-45
2023/12/17 02:22:48;;;;;;;3.37;2.83;;;16.30;66.60;17.20;103021.00;;;;5067460;28;20169;-45
2023/12/17 02:25:13;;;;;;;4.30;3.10;;;16.30;66.60;17.20;103023.00;;;;5049465;28;20193;-45
2023/12/17 02:27:41;;;;;;;2.70;2.50;;;16.20;66.40;17.20;103030.00;;;;5070869;28;20349;-45
2023/12/17 02:30:08;;;;;;;2.90;2.47;;;16.20;66.40;17.20;103035.00;;;;5071926;28;20654;-45
2023/12/17 02:32:33;;;;;;;3.60;2.70;;;16.20;66.40;17.20;103034.00;;;;5069254;28;20278;-45
2023/12/17 02:34:59;;;;;;;2.67;2.47;;;16.20;66.50;17.20;103030.00;;;;5051692;28;20203;-45
2023/12/17 02:37:25;;;;;;;3.03;2.50;;;16.20;66.40;17.20;103023.00;;;;5060998;28;20215;-44
2023/12/17 02:39:50;;;;;;;2.90;2.53;;;16.20;66.60;17.20;103030.00;;;;5071359;28;20186;-45
2023/12/17 02:42:17;;;;;;;3.97;2.97;;;16.20;66.60;17.10;103033.00;;;;5071149;28;20201;-45
2023/12/17 02:44:43;;;;;;;2.90;2.60;;;16.20;66.60;17.10;103029.00;;;;5070867;28;20195;-45
2023/12/17 02:47:09;;;;;;;3.63;2.77;;;16.20;66.50;17.10;103011.00;;;;5063919;28;20202;-45
2023/12/17 02:49:35;;;;;;;3.10;2.70;;;16.20;66.60;17.10;103014.00;;;;5050979;28;20550;-45
2023/12/17 02:52:01;;;;;;;3.47;2.70;;;16.20;66.50;17.10;103011.00;;;;5051570;28;20660;-45
2023/12/17 02:54:28;;;;;;;2.83;2.60;;;16.20;66.50;17.10;103006.00;;;;5051014;28;20183;-46
2023/12/17 02:56:53;;;;;;;3.27;2.87;;;16.20;67.30;17.10;103009.00;;;;5051106;28;20294;-45
2023/12/17 02:59:19;;;;;;;3.00;2.70;;;16.20;66.50;17.10;103004.00;;;;5051207;28;20269;-48
2023/12/17 03:01:45;;;;;;;2.63;2.40;;;16.20;66.60;17.10;102995.00;;;;5051347;28;20235;-45
2023/12/17 03:04:11;;;;;;;2.80;2.60;;;16.10;66.50;17.10;102989.00;;;;5053701;28;20184;-45
2023/12/17 03:06:37;;;;;;;2.83;2.53;;;16.20;66.60;17.10;102979.00;;;;5050889;28;20640;-45
2023/12/17 03:09:04;;;;;;;3.47;2.50;;;16.10;67.30;16.80;102978.00;;;;5051171;28;20185;-45
2023/12/17 03:11:30;;;;;;;3.60;2.40;;;16.10;66.50;17.10;102988.00;;;;5049730;28;20179;-44
2023/12/17 03:13:56;;;;;;;2.60;2.40;;;16.10;66.60;17.10;102975.00;;;;5050758;28;20193;-45
2023/12/17 03:16:27;;;;;;;2.93;2.50;;;16.10;66.60;17.10;102981.00;;;;5050718;28;20180;-45
2023/12/17 03:18:53;;;;;;;2.60;2.40;;;16.10;66.50;17.10;102984.00;;;;5049486;28;20286;-45
2023/12/17 03:21:18;;;;;;;3.10;2.30;;;16.10;66.50;17.10;102988.00;;;;5050485;28;20259;-45
2023/12/17 03:23:44;;;;;;;2.60;2.40;;;16.10;66.60;17.00;102983.00;;;;5050588;28;20178;-45
2023/12/17 03:26:10;;;;;;;2.70;2.40;;;16.10;66.60;17.10;102988.00;;;;5051569;28;20175;-44
2023/12/17 03:28:36;;;;;;;2.87;2.50;;;16.10;66.60;17.00;102974.00;;;;5051477;28;20246;-44
2023/12/17 03:31:02;;;;;;;2.50;2.30;;;16.10;66.60;17.00;102971.00;;;;5050894;28;20181;-45
2023/12/17 03:33:28;;;;;;;2.60;2.40;;;16.00;66.50;17.00;102974.00;;;;5050524;28;20190;-45
2023/12/17 03:35:53;;;;;;;2.70;2.50;;;16.10;66.60;17.00;102980.00;;;;5050808;28;20188;-44
2023/12/17 03:38:19;;;;;;;2.70;2.37;;;16.00;66.50;17.00;102973.00;;;;5048666;28;20202;-44
2023/12/17 03:40:45;;;;;;;2.33;2.13;;;16.00;66.50;17.00;102970.00;;;;5050770;28;20168;-44
2023/12/17 03:43:10;;;;;;;2.63;2.30;;;16.00;66.50;17.00;102976.00;;;;5050553;28;20186;-44
2023/12/17 03:45:36;;;;;;;2.30;2.10;;;16.00;66.60;17.00;102968.00;;;;5050772;28;20210;-44
2023/12/17 03:48:02;;;;;;;2.47;2.23;;;16.00;66.50;17.00;102901.00;;;;5050509;28;20594;-46
2023/12/17 03:50:28;;;;;;;2.50;2.30;;;16.00;66.50;17.00;102954.00;;;;5050665;28;20200;-45
2023/12/17 03:52:54;;;;;;;2.60;2.40;;;16.00;66.50;17.00;102960.00;;;;5049956;28;20193;-45
2023/12/17 03:55:20;;;;;;;2.83;2.40;;;16.00;66.60;17.00;102950.00;;;;5050257;28;20685;-45
2023/12/17 03:57:47;;;;;;;2.57;2.27;;;16.00;66.50;16.90;102931.00;;;;5050024;28;20220;-45
2023/12/17 04:00:13;;;;;;;2.40;2.20;;;16.00;66.50;16.90;102951.00;;;;5049135;28;20201;-45
2023/12/17 04:02:39;;;;;;;2.87;2.37;;;16.00;66.50;16.90;102956.00;;;;5051853;28;20213;-45
2023/12/17 04:05:06;;;;;;;2.53;2.20;;;15.90;66.50;16.90;102954.00;;;;5053768;28;20180;-45
2023/12/17 04:07:31;;;;;;;2.33;2.13;;;15.90;66.50;16.90;102957.00;;;;5050845;28;20201;-45
2023/12/17 04:09:57;;;;;;;2.40;2.20;;;15.90;66.50;16.90;102961.00;;;;5059297;28;20178;-45
2023/12/17 04:12:23;;;;;;;2.47;2.20;;;15.90;66.50;16.90;102956.00;;;;5051163;28;20241;-45
2023/12/17 04:14:49;;;;;;;2.40;2.20;;;15.90;66.50;16.90;102956.00;;;;5050813;28;20220;-45
2023/12/17 04:17:15;;;;;;;2.47;2.17;;;15.90;66.50;16.90;102948.00;;;;5050851;28;20297;-45
2023/12/17 04:19:40;;;;;;;2.30;2.10;;;15.90;66.50;16.90;102957.00;;;;5051091;28;20760;-45
2023/12/17 04:22:06;;;;;;;2.53;2.20;;;15.90;66.50;16.90;102957.00;;;;5050206;28;20538;-45
2023/12/17 04:24:32;;;;;;;2.47;2.27;;;15.90;66.50;16.90;102955.00;;;;5050883;28;20201;-45
2023/12/17 04:26:58;;;;;;;2.30;2.10;;;15.90;66.50;16.90;102954.00;;;;5051307;28;20679;-45
2023/12/17 04:29:23;;;;;;;2.20;2.00;;;15.90;66.50;16.90;102955.00;;;;5051002;28;20194;-45
2023/12/17 04:31:49;;;;;;;4.23;2.17;;;15.90;66.80;16.80;102951.00;;;;5050722;28;20193;-45
2023/12/17 04:34:15;;;;;;;6.13;2.27;;;15.90;67.40;16.80;102955.00;;;;5050887;28;20185;-45
2023/12/17 04:36:41;;;;;;;4.57;2.20;;;15.90;67.70;16.80;102960.00;;;;5050339;28;20224;-45
2023/12/17 04:39:07;;;;;;;4.37;2.10;;;15.80;67.20;16.80;102955.00;;;;5051001;28;20174;-45
2023/12/17 04:41:36;;;;;;;2.63;2.20;;;15.90;67.10;16.80;102947.00;;;;5050819;28;20187;-45
2023/12/17 04:44:01;;;;;;;2.53;2.20;;;15.90;67.00;16.80;102951.00;;;;5050700;28;20173;-45
2023/12/17 04:46:28;;;;;;;2.47;2.27;;;15.80;67.00;16.80;102948.00;;;;5050525;28;20182;-45
2023/12/17 04:48:55;;;;;;;2.70;2.00;;;15.80;67.10;16.80;102945.00;;;;5032204;28;20196;-45
2023/12/17 04:51:22;;;;;;;3.27;2.20;;;15.80;67.10;16.80;102942.00;;;;5050551;28;20171;-45
2023/12/17 04:53:48;;;;;;;2.87;2.00;;;15.80;67.00;16.80;102943.00;;;;5050592;28;20262;-45
2023/12/17 04:56:14;;;;;;;3.30;2.00;;;15.80;67.00;16.80;102949.00;;;;5050444;28;20213;-45
2023/12/17 04:58:40;;;;;;;2.37;2.17;;;15.80;66.90;16.80;102941.00;;;;5050314;28;20285;-45
2023/12/17 05:01:05;;;;;;;2.00;1.90;;;15.80;66.80;16.80;102935.00;;;;5051348;28;20618;-45
2023/12/17 05:03:31;;;;;;;4.83;2.10;;;15.80;66.80;16.80;102940.00;;;;5054805;28;20182;-45
2023/12/17 05:05:57;;;;;;;2.17;1.97;;;15.80;66.80;16.80;102946.00;;;;5050518;28;20186;-45
2023/12/17 05:08:23;;;;;;;2.57;2.20;;;15.80;66.80;16.60;102941.00;;;;5048909;28;20205;-45
2023/12/17 05:10:49;;;;;;;2.53;2.13;;;15.80;66.70;16.80;102943.00;;;;5051561;28;20197;-45
2023/12/17 05:13:15;;;;;;;2.20;2.00;;;15.80;66.70;16.80;102938.00;;;;5051637;28;20190;-45
2023/12/17 05:15:40;;;;;;;2.33;2.00;;;15.80;66.70;16.80;102925.00;;;;5051851;28;20207;-45
2023/12/17 05:18:06;;;;;;;2.07;1.93;;;15.80;66.70;16.80;102920.00;;;;5050039;28;20697;-45
2023/12/17 05:20:32;;;;;;;2.93;2.07;;;15.70;66.60;16.70;102920.00;;;;5051991;28;20259;-45
2023/12/17 05:22:58;;;;;;;2.40;2.20;;;15.80;66.70;16.70;102921.00;;;;5051693;28;20265;-45
2023/12/17 05:25:23;;;;;;;2.40;2.20;;;15.80;66.70;16.70;102922.00;;;;5050039;28;20186;-45
2023/12/17 05:27:49;;;;;;;2.20;2.00;;;15.80;66.60;16.70;102929.00;;;;5051570;28;20210;-45
2023/12/17 05:30:15;;;;;;;1.90;1.80;;;15.70;66.60;16.70;102927.00;;;;5049906;28;20178;-45
2023/12/17 05:32:41;;;;;;;2.63;2.13;;;15.70;66.60;16.70;102916.00;;;;5048578;28;20182;-45
2023/12/17 05:35:07;;;;;;;2.20;2.00;;;15.70;66.70;16.70;102935.00;;;;5049756;28;20183;-44
2023/12/17 05:37:33;;;;;;;2.60;2.10;;;15.70;66.70;16.70;102922.00;;;;5049896;28;20214;-44
2023/12/17 05:39:58;;;;;;;2.73;2.37;;;15.70;66.70;16.70;102918.00;;;;5050137;28;20216;-44
2023/12/17 05:42:24;;;;;;;2.20;1.90;;;15.70;66.70;16.70;102913.00;;;;5043941;28;20257;-44
2023/12/17 05:44:50;;;;;;;2.20;2.00;;;15.70;66.80;16.70;102921.00;;;;5048502;28;20180;-44
2023/12/17 05:47:16;;;;;;;2.17;1.97;;;15.70;66.80;16.70;102909.00;;;;5049106;28;20210;-44
2023/12/17 05:49:42;;;;;;;3.13;1.93;;;15.70;66.80;16.70;102909.00;;;;5049409;28;20207;-45
2023/12/17 05:52:08;;;;;;;6.30;2.33;;;15.70;66.80;16.70;102908.00;;;;5049220;28;20201;-45
2023/12/17 05:54:34;;;;;;;6.40;2.50;;;15.70;66.80;16.60;102905.00;;;;5048973;28;20261;-44
2023/12/17 05:57:00;;;;;;;10.63;2.87;;;15.70;66.80;16.60;102907.00;;;;5049121;28;20217;-44
2023/12/17 05:59:26;;;;;;;10.70;2.90;;;15.60;66.70;16.60;102905.00;;;;5048359;28;20186;-45
2023/12/17 06:01:51;;;;;;;8.07;3.10;;;15.60;66.80;16.60;102905.00;;;;5048236;28;20687;-44
2023/12/17 06:04:17;;;;;;;13.73;3.10;;;15.70;67.10;16.60;102904.00;;;;5047877;28;20308;-44
2023/12/17 06:06:43;;;;;;;9.13;3.20;;;15.60;67.40;16.60;102907.00;;;;5049092;28;20173;-44
2023/12/17 06:09:09;;;;;;;17.07;3.30;;;15.70;67.80;16.60;102898.00;;;;5049050;28;20208;-44
2023/12/17 06:11:35;;;;;;;7.80;2.67;;;15.60;68.00;16.60;102901.00;;;;5048810;28;20268;-44
2023/12/17 06:14:02;;;;;;;10.27;3.00;;;15.60;68.10;16.60;102904.00;;;;5048762;28;20177;-44
2023/12/17 06:16:28;;;;;;;11.30;2.80;;;15.60;68.20;16.60;102905.00;;;;5048965;28;20194;-45
2023/12/17 06:18:54;;;;;;;6.33;2.57;;;15.60;68.20;16.60;102909.00;;;;5048901;28;20214;-45
2023/12/17 06:21:23;;;;;;;5.93;2.60;;;15.60;68.40;16.60;102920.00;;;;5048602;28;20660;-45
2023/12/17 06:23:50;;;;;;;10.67;2.70;;;15.70;68.40;16.60;102916.00;;;;5048486;28;20202;-44
2023/12/17 06:26:19;;;;;;;10.27;2.77;;;15.60;68.30;16.60;102916.00;;;;5050393;28;20535;-44
2023/12/17 06:28:45;;;;;;;8.30;2.83;;;15.60;68.60;16.60;102930.00;;;;5041069;28;20198;-44
2023/12/17 06:31:11;;;;;;;7.30;2.60;;;15.60;68.40;16.60;102922.00;;;;5049395;28;20731;-45
2023/12/17 06:33:37;;;;;;;5.40;2.40;;;15.50;68.50;16.60;102933.00;;;;5047828;28;20335;-44
2023/12/17 06:36:03;;;;;;;6.27;2.67;;;15.60;68.60;16.60;102915.00;;;;5047813;28;20194;-44
2023/12/17 06:38:29;;;;;;;6.33;2.53;;;15.50;68.40;16.60;102923.00;;;;5047982;28;20261;-44
2023/12/17 06:40:55;;;;;;;9.67;2.67;;;15.50;68.50;16.60;102918.00;;;;5047373;28;20239;-44
2023/12/17 06:43:21;;;;;;;6.23;2.87;;;15.50;68.40;16.60;102925.00;;;;5048878;28;20182;-44
2023/12/17 06:45:46;;;;;;;6.77;2.53;;;15.50;68.30;16.50;102930.00;;;;5056559;28;20523;-45
2023/12/17 06:48:12;;;;;;;6.40;2.70;;;15.50;68.40;16.50;102938.00;;;;5048323;28;20219;-44
2023/12/17 06:50:38;;;;;;;6.17;2.23;;;15.50;68.40;16.50;102934.00;;;;5047667;28;20191;-44
2023/12/17 06:53:04;;;;;;;6.97;2.40;;;15.50;68.20;16.50;102928.00;;;;5048512;28;20201;-44
2023/12/17 06:55:29;;;;;;;3.00;2.13;;;15.50;68.20;16.50;102935.00;;;;5048605;28;20186;-45
2023/12/17 06:57:56;;;;;;;5.00;2.27;;;15.50;68.20;16.50;102931.00;;;;5048582;28;20218;-45
2023/12/17 07:00:21;;;;;;;4.33;2.40;;;15.50;68.20;16.50;102937.00;;;;5045237;28;20193;-45
2023/12/17 07:02:47;;;;;;;2.90;2.27;;;15.50;68.20;16.50;102944.00;;;;5047705;28;20180;-44
2023/12/17 07:05:13;;;;;;;4.33;2.40;;;15.50;68.20;16.50;102950.00;;;;5051670;28;20183;-44
2023/12/17 07:07:39;;;;;;;4.87;2.40;;;15.50;68.10;16.50;102947.00;;;;5031277;28;20206;-45
2023/12/17 07:10:06;;;;;;;3.60;2.07;;;15.50;68.20;16.50;102943.00;;;;5048874;28;20228;-44
2023/12/17 07:12:32;;;;;;;3.47;2.30;;;15.50;68.10;16.50;102956.00;;;;5049953;28;20186;-44
2023/12/17 07:14:58;;;;;;;2.70;2.13;;;15.50;68.00;16.50;102959.00;;;;5052341;28;20706;-45
2023/12/17 07:17:24;;;;;;;3.07;2.10;;;15.40;68.00;16.50;102947.00;;;;5052116;28;20265;-44
2023/12/17 07:19:49;;;;;;;2.20;2.00;;;15.50;68.10;16.50;102958.00;;;;5051100;28;20300;-45
2023/12/17 07:22:16;;;;;;;2.90;2.00;;;15.40;68.00;16.50;102955.00;;;;5052127;28;20225;-44
2023/12/17 07:24:42;;;;;;;3.80;2.20;;;15.40;67.90;16.40;102948.00;;;;5052061;28;20216;-44
2023/12/17 07:27:08;;;;;;;2.70;2.13;;;15.50;68.10;16.40;102955.00;;;;5053757;28;20297;-44
2023/12/17 07:29:34;;;;;;;3.87;1.90;;;15.50;68.10;16.40;102943.00;;;;5060264;28;20188;-44
2023/12/17 07:31:59;;;;;;;2.17;1.90;;;15.40;68.00;16.40;102939.00;;;;5051459;28;20212;-45
2023/12/17 07:34:25;;;;;;;2.57;2.10;;;15.40;68.00;16.40;102925.00;;;;5052420;28;20178;-44
2023/12/17 07:36:51;;;;;;;2.37;2.03;;;15.40;68.00;16.40;102943.00;;;;5052091;28;20690;-44
2023/12/17 07:39:18;;;;;;;3.17;2.10;;;15.40;68.00;16.40;102941.00;;;;5052247;28;20174;-45
2023/12/17 07:41:44;;;;;;;2.27;1.90;;;15.40;67.90;16.40;102930.00;;;;5048950;28;20191;-44
2023/12/17 07:44:09;;;;;;;2.13;1.93;;;15.40;67.90;16.40;102927.00;;;;5051137;28;20182;-44
2023/12/17 07:46:35;;;;;;;7.03;2.10;;;15.40;67.90;16.40;102933.00;;;;5051928;28;20214;-44
2023/12/17 07:49:01;;;;;;;3.50;2.23;;;15.40;68.00;16.40;102929.00;;;;5050565;28;20628;-44
2023/12/17 07:51:26;;;;;;;4.37;2.37;;;15.40;68.20;16.40;102928.00;;;;5051454;28;20553;-45
2023/12/17 07:53:52;;;;;;;2.77;2.00;;;15.30;68.40;16.40;102920.00;;;;5049897;28;20182;-45
2023/12/17 07:56:18;;;;;;;5.67;2.10;;;15.30;68.50;16.30;102922.00;;;;5051519;28;20181;-46
2023/12/17 07:58:43;;;;;;;3.00;2.10;;;15.40;68.60;16.30;102921.00;;;;5043224;28;20206;-45
2023/12/17 08:01:09;;;;;;;3.10;2.10;;;15.40;68.80;16.40;102911.00;;;;5051422;28;20179;-45
2023/12/17 08:03:35;;;;;;;2.53;2.10;;;15.50;69.00;16.40;102918.00;;;;5054403;28;20664;-45
2023/12/17 08:06:01;;;;;;;2.90;1.90;;;15.50;68.90;16.40;102917.00;;;;5051754;28;20182;-45
2023/12/17 08:08:27;;;;;;;4.17;2.17;;;15.70;69.10;16.50;102916.00;;;;5052075;28;20710;-45
2023/12/17 08:10:53;;;;;;;3.80;2.00;;;15.80;69.10;16.60;102917.00;;;;5051170;28;20213;-45
2023/12/17 08:13:19;;;;;;;12.73;2.07;;;15.90;68.80;16.60;102918.00;;;;5051146;28;20734;-45
2023/12/17 08:15:45;;;;;;;1.60;1.50;;;16.00;68.70;16.70;102916.00;;;;5051579;28;20171;-45
2023/12/17 08:18:10;;;;;;;2.90;1.80;;;16.10;68.60;16.80;102911.00;;;;5050669;28;20727;-45
2023/12/17 08:20:36;;;;;;;2.80;1.90;;;16.20;68.50;16.90;102920.00;;;;5050103;28;20312;-45
2023/12/17 08:23:02;;;;;;;4.70;1.70;;;16.30;68.40;17.00;102912.00;;;;5050508;28;20174;-45
2023/12/17 08:25:29;;;;;;;2.03;1.73;;;16.50;68.30;17.10;102913.00;;;;5042311;28;20522;-45
2023/12/17 08:27:54;;;;;;;1.67;1.57;;;16.60;68.30;17.20;102912.00;;;;5052358;28;20202;-45
2023/12/17 08:30:20;;;;;;;2.00;1.70;;;16.70;68.10;17.30;102916.00;;;;5048478;28;20536;-44
2023/12/17 08:32:46;;;;;;;2.80;1.70;;;16.80;67.90;17.40;102921.00;;;;5051291;28;20176;-44
2023/12/17 08:35:12;;;;;;;3.10;1.93;;;16.90;67.90;17.50;102913.00;;;;5044019;28;20172;-43
2023/12/17 08:37:37;;;;;;;2.33;1.53;;;16.90;67.70;17.50;102908.00;;;;5048383;28;20214;-45
2023/12/17 08:40:04;;;;;;;4.63;1.90;;;17.00;67.80;17.60;102911.00;;;;5049561;28;20241;-44
2023/12/17 08:42:29;;;;;;;5.10;2.00;;;17.00;67.70;17.60;102911.00;;;;5051076;28;20178;-44
2023/12/17 08:44:55;;;;;;;2.13;1.77;;;17.00;67.60;17.70;102918.00;;;;5048707;28;20313;-44
2023/12/17 08:47:22;;;;;;;1.60;1.50;;;17.10;67.60;17.70;102912.00;;;;5050454;28;20246;-44
2023/12/17 08:49:47;;;;;;;4.83;1.87;;;17.10;68.50;17.70;102912.00;;;;5051042;28;20183;-44
2023/12/17 08:52:13;;;;;;;5.47;1.90;;;17.20;67.80;17.80;102919.00;;;;5048943;28;20705;-44
2023/12/17 08:54:39;;;;;;;4.37;1.90;;;17.20;67.80;17.80;102912.00;;;;5050073;28;20272;-44
2023/12/17 08:57:05;;;;;;;3.87;2.03;;;17.20;67.80;17.90;102910.00;;;;5047770;28;20580;-44
2023/12/17 08:59:31;;;;;;;2.63;1.83;;;17.30;68.60;17.90;102909.00;;;;5049509;28;20178;-44
2023/12/17 09:01:57;;;;;;;3.63;1.80;;;17.30;68.60;17.90;102911.00;;;;5049155;28;20668;-44
2023/12/17 09:04:22;;;;;;;5.63;1.90;;;17.30;68.00;17.90;102913.00;;;;5041809;28;20237;-44
2023/12/17 09:06:48;;;;;;;3.93;1.80;;;17.30;68.00;17.90;102910.00;;;;5047617;28;20202;-44
2023/12/17 09:09:14;;;;;;;5.87;2.00;;;17.30;68.30;18.00;102916.00;;;;5054019;28;20201;-44
2023/12/17 09:11:40;;;;;;;7.97;2.20;;;17.30;68.50;18.00;102911.00;;;;5049993;28;21119;-44
2023/12/17 09:14:07;;;;;;;9.83;2.30;;;17.30;68.80;18.00;102915.00;;;;5062561;28;20216;-44
2023/12/17 09:16:34;;;;;;;6.33;2.03;;;17.30;68.80;18.10;102921.00;;;;5052626;28;20174;-46
2023/12/17 09:19:00;;;;;;;4.73;2.00;;;17.30;68.90;18.10;102906.00;;;;5050400;28;20212;-44
2023/12/17 09:21:26;;;;;;;6.33;2.17;;;17.30;69.10;18.10;102917.00;;;;5049376;28;20185;-44
2023/12/17 09:23:52;;;;;;;5.53;2.30;;;17.40;69.30;18.10;102914.00;;;;5048534;28;20575;-42
2023/12/17 09:26:18;;;;;;;3.33;1.90;;;17.40;69.70;18.10;102911.00;;;;5051527;28;20755;-45
2023/12/17 09:28:44;;;;;;;5.83;2.20;;;17.40;69.90;18.10;102917.00;;;;5048873;28;20205;-43
2023/12/17 09:31:11;;;;;;;5.50;2.37;;;17.50;70.30;18.10;102917.00;;;;5047288;28;20185;-43
2023/12/17 09:33:37;;;;;;;5.50;2.10;;;17.50;70.70;18.20;102921.00;;;;5047715;28;20247;-44
2023/12/17 09:36:04;;;;;;;4.10;2.10;;;17.50;70.80;18.20;102915.00;;;;5048939;28;20221;-43
2023/12/17 09:38:30;;;;;;;3.37;1.93;;;17.50;71.20;18.20;102915.00;;;;5050977;28;20206;-44
2023/12/17 09:40:56;;;;;;;3.93;2.20;;;17.50;71.20;18.20;102921.00;;;;5048161;28;20648;-44
2023/12/17 09:43:24;;;;;;;6.17;1.80;;;17.50;71.40;18.20;102926.00;;;;5048443;28;20209;-44
2023/12/17 09:45:51;;;;;;;3.93;2.20;;;17.50;71.80;18.20;102928.00;;;;5058219;28;20307;-44
2023/12/17 09:48:17;;;;;;;5.47;2.07;;;17.50;72.10;18.20;102925.00;;;;5047569;28;20225;-44
2023/12/17 09:50:43;;;;;;;6.47;2.30;;;17.50;72.20;18.20;102926.00;;;;5048814;28;20178;-44
2023/12/17 09:53:09;;;;;;;5.50;2.60;;;17.50;73.50;18.20;102915.00;;;;5046809;28;20178;-44
2023/12/17 09:55:35;;;;;;;6.63;2.40;;;17.50;72.80;18.30;102917.00;;;;5047515;28;20317;-44
2023/12/17 09:58:05;;;;;;;7.37;2.60;;;17.50;73.10;18.30;102918.00;;;;5053071;28;20524;-47
2023/12/17 10:00:31;;;;;;;4.73;2.50;;;17.40;73.10;18.30;102923.00;;;;5048800;28;20265;-44
2023/12/17 10:03:04;;;;;;;8.33;2.80;;;17.50;73.40;18.30;102918.00;;;;5048786;28;20272;-45
2023/12/17 10:05:30;;;;;;;7.67;2.27;;;17.40;73.40;18.30;102934.00;;;;5049751;28;20175;-44
2023/12/17 10:07:56;;;;;;;6.17;2.40;;;17.40;73.20;18.30;102912.00;;;;5045006;28;20228;-45
2023/12/17 10:10:21;;;;;;;6.23;2.70;;;17.40;73.00;18.20;102911.00;;;;5048682;28;20597;-44
2023/12/17 10:12:47;;;;;;;8.30;2.80;;;17.40;72.90;18.20;102908.00;;;;5047704;28;20174;-44
2023/12/17 10:15:13;;;;;;;4.87;2.20;;;17.40;72.70;18.20;102910.00;;;;5047883;28;20711;-44
2023/12/17 10:17:40;;;;;;;5.13;2.33;;;17.30;72.50;18.20;102911.00;;;;5047339;28;20235;-45
2023/12/17 10:20:07;;;;;;;10.33;2.73;;;17.30;72.40;18.20;102899.00;;;;5045367;28;20690;-44
2023/12/17 10:22:33;;;;;;;6.23;2.80;;;17.30;72.30;18.20;102899.00;;;;5042856;28;20174;-45
2023/12/17 10:24:58;;;;;;;6.23;2.40;;;17.30;72.00;18.20;102903.00;;;;5062540;28;20660;-45
2023/12/17 10:27:24;;;;;;;3.67;2.20;;;17.30;72.10;18.20;102903.00;;;;5046965;28;20240;-45
2023/12/17 10:29:51;;;;;;;5.47;2.30;;;17.30;72.00;18.10;102905.00;;;;5046888;28;20190;-44
2023/12/17 10:32:22;;;;;;;7.93;2.60;;;17.30;72.00;18.10;102897.00;;;;5045959;28;20185;-44
2023/12/17 10:34:50;;;;;;;7.27;2.60;;;17.20;71.80;18.10;102890.00;;;;5046975;28;20651;-45
2023/12/17 10:37:20;;;;;;;4.77;2.20;;;17.20;71.80;18.10;102871.00;;;;5048100;28;20218;-44
2023/12/17 10:39:51;;;;;;;7.20;2.63;;;17.20;71.70;18.10;102898.00;;;;5040773;28;20179;-44
2023/12/17 10:42:17;;;;;;;6.50;2.40;;;17.20;71.70;18.00;102899.00;;;;5046770;28;20201;-44